Sharpsville, Pennsylvania
Current Conditions -  °F | °C
As of 2:51 PM on Wednesday 26 Nov 2014 (Local Time) from KYNG Reporting Station
Broken Clouds Broken Clouds  
Wind Chill: 33°   Ceiling: 1500
Heat Index: 37°   Visibility: 10mi
Dew Point: 28°   Wind: 5mph
Humidity: 70%   Direction: 50°NE
Pressure: 30.01"   Gusts: NA
Location:  41.26°N, 80.47°W
Report Text: KYNG 261951Z 05004KT 10SM BKN015 BKN170 03/M02 A3001 RMK AO2 SLP172 T00281022
Loading
Personal Weather Stations






























Interactive Weather Map New forecast layout! Learn more

10-Day Weather Forecast

Advertisements
Track Severe Weather on mobile